»·PEaware :: N203WA KPDX-KBFI

N203WA :: KPDX-KBFI

FLIGHT INFORMATION

Flight Status: Arrived
Operator: Privately registered:
United States
More flights under this callsign
Pilot: Scott R. (7279)
Aircraft: BEECH AIRCRAFT BARON
(BE58)
More flights by this aircraft type
Origin: KPDX Portland Intl
United States
Destination: KBFI Boeing Field/King Co Intl
United States
More flights between these airports :: More routes between these airports
Route: BTG V23 SEA
File this flight plan on PilotEdge
Remarks:
Altitude:
(Current/Filed)
6,000ft
Speed:
(Current/Filed)
180kts
Departed: 24-Dec-17 01:20 PM
Arrived: 24-Dec-17 02:19 PM
Distance/Time
Traveled:
117nm/0:58
Distance/Time
To Go:
Arrived

Flight Plot

Page will automatically refresh every two minutes.

Flight plan parsing failed; only flown route is shown


Map Options




Map Legend


Flown Route
Filed Route
Departure Airport
Arrival Airport
Navaid (VOR, NDB)
Fix

Horizontal Profiles

Position Reports

Time Latitude Longitude Heading Altitude Ground
Speed
24-Dec-17 13:13 45.585039 -122.580230 213 29ft 0kts
24-Dec-17 13:14 45.585039 -122.580230 213 29ft 0kts
24-Dec-17 13:15 45.585039 -122.580230 213 29ft 0kts
24-Dec-17 13:16 45.585039 -122.580230 213 29ft 0kts
24-Dec-17 13:17 45.585039 -122.580230 213 29ft 0kts
24-Dec-17 13:18 45.585039 -122.580230 213 29ft 0kts
24-Dec-17 13:19 45.585184 -122.580692 318 29ft 10kts
24-Dec-17 13:20 45.589045 -122.583937 330 29ft 17kts
24-Dec-17 13:21 45.591237 -122.591647 310 29ft 25kts
24-Dec-17 13:22 45.593162 -122.597628 271 29ft 8kts
24-Dec-17 13:23 45.594330 -122.596996 298 29ft 13kts
24-Dec-17 13:24 45.595203 -122.598222 25 29ft 0kts
24-Dec-17 13:25 45.595096 -122.596359 117 29ft 15kts
24-Dec-17 13:26 45.583250 -122.567443 118 696ft 111kts
24-Dec-17 13:27 45.567797 -122.525589 114 1741ft 123kts
24-Dec-17 13:28 45.556065 -122.482234 67 2793ft 125kts
24-Dec-17 13:29 45.589658 -122.491544 335 3796ft 152kts
24-Dec-17 13:30 45.628035 -122.517419 340 4762ft 155kts
24-Dec-17 13:31 45.664362 -122.539967 339 5995ft 134kts
24-Dec-17 13:32 45.702365 -122.563161 337 6002ft 154kts
24-Dec-17 13:33 45.740712 -122.586984 336 6001ft 150kts
24-Dec-17 13:34 45.781044 -122.599131 349 6002ft 151kts
24-Dec-17 13:35 45.822638 -122.609284 348 6004ft 152kts
24-Dec-17 13:36 45.864297 -122.619628 348 6006ft 153kts
24-Dec-17 13:37 45.906338 -122.630095 348 6008ft 153kts
24-Dec-17 13:38 45.948317 -122.640745 348 6009ft 153kts
24-Dec-17 13:39 45.989886 -122.651807 350 5979ft 155kts
24-Dec-17 13:40 46.033950 -122.663016 350 6009ft 165kts
24-Dec-17 13:41 46.079372 -122.673383 348 5980ft 164kts
24-Dec-17 13:42 46.123820 -122.684075 347 5981ft 161kts
24-Dec-17 13:43 46.167291 -122.694948 347 5979ft 155kts
24-Dec-17 13:44 46.208642 -122.705287 347 5979ft 147kts
24-Dec-17 13:45 46.242625 -122.721115 334 5048ft 135kts
24-Dec-17 13:46 46.274884 -122.726367 359 5518ft 117kts
24-Dec-17 13:47 46.315421 -122.733185 348 5267ft 155kts
24-Dec-17 13:48 46.357919 -122.743651 348 5491ft 155kts
24-Dec-17 13:49 46.400333 -122.754128 347 5691ft 155kts
24-Dec-17 13:50 46.442942 -122.752668 18 5850ft 156kts
24-Dec-17 13:51 46.484540 -122.735140 19 5973ft 160kts
24-Dec-17 13:52 46.524625 -122.715641 15 5954ft 142kts
24-Dec-17 13:53 46.560510 -122.699230 14 5954ft 137kts
24-Dec-17 13:54 46.595888 -122.683529 13 5992ft 137kts
24-Dec-17 13:55 46.632657 -122.667371 13 5992ft 140kts
24-Dec-17 13:56 46.671181 -122.650472 13 5994ft 151kts
24-Dec-17 13:57 46.712309 -122.632395 14 5986ft 156kts
24-Dec-17 13:58 46.754360 -122.614059 14 5922ft 159kts
24-Dec-17 13:59 46.796810 -122.595921 16 5831ft 165kts
24-Dec-17 14:00 46.843911 -122.576413 19 5773ft 183kts
24-Dec-17 14:01 46.893175 -122.554168 18 5722ft 187kts
24-Dec-17 14:02 46.941839 -122.532574 18 5756ft 180kts
24-Dec-17 14:03 46.989275 -122.511411 18 5808ft 177kts
24-Dec-17 14:04 47.035772 -122.490425 18 5872ft 175kts
24-Dec-17 14:05 47.081943 -122.469151 16 5926ft 175kts
24-Dec-17 14:06 47.128577 -122.448072 16 5962ft 176kts
24-Dec-17 14:07 47.176710 -122.439863 355 5982ft 177kts
24-Dec-17 14:08 47.225476 -122.445137 355 5987ft 171kts
24-Dec-17 14:09 47.272227 -122.450346 355 5986ft 168kts
24-Dec-17 14:10 47.319435 -122.457462 355 5986ft 171kts
24-Dec-17 14:11 47.367095 -122.464705 355 5976ft 174kts
24-Dec-17 14:12 47.415360 -122.471816 355 5978ft 174kts
24-Dec-17 14:13 47.463617 -122.478671 355 5981ft 174kts
24-Dec-17 14:14 47.510976 -122.485201 355 5974ft 164kts
24-Dec-17 14:15 47.555548 -122.491310 355 5136ft 167kts
24-Dec-17 14:16 47.601000 -122.497707 355 4231ft 158kts
24-Dec-17 14:17 47.643593 -122.503791 355 3318ft 151kts
24-Dec-17 14:18 47.674820 -122.483910 99 2422ft 144kts
24-Dec-17 14:19 47.651994 -122.444417 135 1970ft 103kts
24-Dec-17 14:20 47.633123 -122.415258 122 1994ft 105kts
24-Dec-17 14:21 47.616275 -122.378080 125 1991ft 112kts
24-Dec-17 14:22 47.592313 -122.353934 153 1732ft 108kts
24-Dec-17 14:23 47.568393 -122.334771 150 703ft 93kts
24-Dec-17 14:24 47.548887 -122.318568 149 273ft 79kts
24-Dec-17 14:25 47.534196 -122.305813 129 20ft 35kts
24-Dec-17 14:26 47.533339 -122.301444 127 20ft 0kts

Navigation Log

Ident Type
Flight plan parsing failed, navigation log unavailable